Time;durP1;ratioP1;P1;durP2;ratioP2;P2;SDS_P1;SDS_P2;PMS_P1;PMS_P2;Temp;Humidity;BMP_temperature;BMP_pressure;BME280_temperature;BME280_humidity;BME280_pressure;Samples;Min_cycle;Max_cycle;Signal;HPM_P1;HPM_P2
2022/02/06 00:01:11;;;;;;;;;;;0.00;99.90;;;;;;4920236;29;20021;-78
2022/02/06 00:03:37;;;;;;;41.05;12.02;;;0.00;99.90;;;;;;4935406;29;20271;-79
2022/02/06 00:06:03;;;;;;;;;;;-0.10;99.90;;;;;;4993468;23;20056;-79
2022/02/06 00:08:29;;;;;;;33.53;10.73;;;-0.10;99.90;;;;;;4918465;29;19919;-79
2022/02/06 00:10:54;;;;;;;;;;;-0.10;99.90;;;;;;4917343;29;20051;-79
2022/02/06 00:13:20;;;;;;;35.38;9.73;;;-0.20;99.90;;;;;;4915765;29;19915;-79
2022/02/06 00:15:47;;;;;;;;;;;-0.20;99.90;;;;;;4922313;29;20041;-79
2022/02/06 00:18:13;;;;;;;18.67;7.50;;;-0.20;99.90;;;;;;4920201;29;19907;-79
2022/02/06 00:20:49;;;;;;;;;;;-0.30;99.90;;;;;;4935965;29;20048;-78
2022/02/06 00:23:17;;;;;;;19.02;6.03;;;-0.30;99.90;;;;;;4922032;29;19891;-78
2022/02/06 00:28:20;;;;;;;;;;;-0.30;99.90;;;;;;4921795;29;20096;-80
2022/02/06 00:30:58;;;;;;;23.70;9.23;;;-0.30;99.90;;;;;;4920420;29;19898;-80
2022/02/06 00:38:05;;;;;;;27.55;5.13;;;-0.40;99.90;;;;;;4921202;29;20051;-78
2022/02/06 00:41:25;;;;;;;;;;;-0.40;99.90;;;;;;4921061;29;20040;-78
2022/02/06 00:43:52;;;;;;;13.20;4.32;;;-0.20;99.90;;;;;;4933950;29;19907;-79
2022/02/06 00:46:20;;;;;;;19.25;5.95;;;-0.40;99.90;;;;;;4934400;29;20617;-79
2022/02/06 00:48:55;;;;;;;17.52;5.38;;;-0.40;99.90;;;;;;4919376;29;20021;-78
2022/02/06 00:51:41;;;;;;;24.08;7.00;;;-0.50;99.90;;;;;;4918651;29;20009;-79
2022/02/06 00:54:07;;;;;;;24.50;6.43;;;-0.60;99.90;;;;;;4933599;29;20498;-78
2022/02/06 00:56:32;;;;;;;;;;;-0.50;99.90;;;;;;4919133;29;20031;-79
2022/02/06 00:58:58;;;;;;;24.73;6.15;;;-0.80;99.90;;;;;;4918363;29;19899;-79
2022/02/06 01:01:24;;;;;;;;;;;-0.70;99.90;;;;;;4935206;29;20036;-78
2022/02/06 01:03:50;;;;;;;5.75;2.08;;;-0.70;99.90;;;;;;4933006;29;19919;-80
2022/02/06 01:06:15;;;;;;;;;;;-0.80;99.90;;;;;;4916995;29;20154;-79
2022/02/06 01:08:41;;;;;;;7.93;2.20;;;-0.80;99.90;;;;;;4916248;29;19908;-78
2022/02/06 01:11:10;;;;;;;;;;;-0.90;99.90;;;;;;4914138;29;20025;-79
2022/02/06 01:14:04;;;;;;;5.25;1.30;;;-0.90;99.90;;;;;;4917970;29;19902;-79
2022/02/06 01:16:38;;;;;;;10.25;1.75;;;-0.90;99.90;;;;;;4922843;29;20032;-80
2022/02/06 01:19:12;;;;;;;9.07;2.38;;;-1.00;99.90;;;;;;4922530;29;20032;-79
2022/02/06 01:21:47;;;;;;;9.88;2.15;;;-1.00;99.90;;;;;;4923295;29;20009;-79
2022/02/06 01:26:45;;;;;;;;;;;-1.00;99.90;;;;;;4924038;29;20040;-80
2022/02/06 01:29:52;;;;;;;11.98;4.57;;;-1.10;99.90;;;;;;4936848;29;19896;-79
2022/02/06 01:32:10;;;;;;;19.05;6.03;;;-1.10;99.90;;;;;;4919038;29;20023;-79
2022/02/06 01:37:10;;;;;;;;;;;-1.20;99.90;;;;;;4921329;29;20037;-79
2022/02/06 01:42:30;;;;;;;8.15;2.92;;;-1.30;99.90;;;;;;4923534;29;20032;-80
2022/02/06 01:45:11;;;;;;;12.10;2.60;;;-1.30;99.90;;;;;;4923252;29;20088;-80
2022/02/06 02:04:09;;;;;;;9.13;2.80;;;-1.00;99.90;;;;;;4919983;29;20047;-79
2022/02/06 02:15:05;;;;;;;9.20;2.38;;;-0.60;99.90;;;;;;4923854;29;20012;-79
2022/02/06 02:17:57;;;;;;;5.63;2.15;;;-0.50;99.90;;;;;;4923628;29;20013;-78
2022/02/06 02:31:22;;;;;;;;;;;-0.10;99.90;;;;;;4923399;29;20045;-81
2022/02/06 02:47:21;;;;;;;7.57;1.92;;;0.50;99.90;;;;;;4921315;29;20021;-78
2022/02/06 02:50:12;;;;;;;6.55;1.75;;;0.50;99.90;;;;;;4921412;29;20025;-80
2022/02/06 02:59:03;;;;;;;6.20;1.58;;;0.70;99.90;;;;;;4900875;29;20025;-78
2022/02/06 03:03:42;;;;;;;4.90;1.55;;;0.60;99.90;;;;;;4921442;29;20021;-79
2022/02/06 03:06:09;;;;;;;5.28;1.52;;;0.60;99.90;;;;;;4909735;29;20052;-76
2022/02/06 03:08:37;;;;;;;4.72;1.55;;;0.60;99.90;;;;;;4901057;29;20025;-77
2022/02/06 03:11:08;;;;;;;4.85;1.40;;;0.70;99.90;;;;;;4899702;29;20057;-77
2022/02/06 03:13:43;;;;;;;5.18;1.55;;;0.60;99.90;;;;;;4909556;29;20061;-77
2022/02/06 03:18:45;;;;;;;7.55;2.05;;;0.70;99.90;;;;;;4909811;29;20096;-78
2022/02/06 03:21:18;;;;;;;6.68;1.77;;;0.70;99.90;;;;;;4911926;29;20035;-77
2022/02/06 03:23:50;;;;;;;11.65;3.05;;;0.70;99.90;;;;;;4920652;29;20025;-78
2022/02/06 03:26:18;;;;;;;11.80;2.67;;;0.60;99.90;;;;;;4921054;29;20093;-78
2022/02/06 03:28:44;;;;;;;7.57;2.50;;;0.60;99.90;;;;;;4921509;29;20080;-78
2022/02/06 03:31:10;;;;;;;;;;;0.60;99.90;;;;;;4923994;29;20039;-79
2022/02/06 03:36:06;;;;;;;10.05;2.72;;;0.60;99.90;;;;;;4882921;29;20057;-78
2022/02/06 03:38:32;;;;;;;;;;;0.60;99.90;;;;;;4887312;29;20021;-79
2022/02/06 03:41:03;;;;;;;8.65;2.60;;;0.60;99.90;;;;;;4887581;29;19918;-77
2022/02/06 03:43:41;;;;;;;9.07;2.90;;;0.60;99.90;;;;;;4879374;29;20029;-78
2022/02/06 03:46:18;;;;;;;11.00;3.58;;;0.60;99.90;;;;;;4881357;29;20040;-78
2022/02/06 03:51:18;;;;;;;;;;;0.60;99.90;;;;;;4884907;29;20498;-78
2022/02/06 03:53:45;;;;;;;11.45;3.47;;;0.50;99.90;;;;;;4884698;29;19915;-78
2022/02/06 03:56:11;;;;;;;9.93;2.35;;;0.50;99.90;;;;;;4889926;29;20044;-80
2022/02/06 03:58:37;;;;;;;9.35;2.83;;;0.50;99.90;;;;;;4895784;29;20025;-80
2022/02/06 04:01:03;;;;;;;;;;;0.60;99.90;;;;;;4897299;29;20573;-79
2022/02/06 04:03:28;;;;;;;5.30;1.27;;;0.70;99.90;;;;;;4887498;29;19908;-76
2022/02/06 04:05:54;;;;;;;3.42;1.60;;;0.80;99.90;;;;;;4878293;29;20435;-77
2022/02/06 04:08:20;;;;;;;7.53;1.10;;;0.90;99.90;;;;;;4879252;29;20036;-77
2022/02/06 04:10:48;;;;;;;5.30;1.40;;;1.00;99.90;;;;;;4878322;29;20422;-77
2022/02/06 04:13:18;;;;;;;4.97;1.88;;;1.10;99.90;;;;;;4883538;29;20029;-78
2022/02/06 04:15:47;;;;;;;6.10;2.28;;;1.20;99.90;;;;;;4881919;29;20402;-77
2022/02/06 04:18:23;;;;;;;8.25;3.45;;;1.20;99.90;;;;;;4890168;29;20025;-80
2022/02/06 04:20:48;;;;;;;9.63;3.97;;;1.20;99.90;;;;;;4888375;29;20134;-79
2022/02/06 04:23:14;;;;;;;;;;;1.10;99.90;;;;;;4889484;29;20092;-79
2022/02/06 04:25:39;;;;;;;12.00;4.85;;;1.00;99.90;;;;;;4894431;29;19896;-80
2022/02/06 04:28:05;;;;;;;;;;;0.90;99.90;;;;;;4888157;29;20601;-78
2022/02/06 04:30:31;;;;;;;11.85;3.88;;;0.80;99.90;;;;;;4888671;29;19911;-78
2022/02/06 04:32:56;;;;;;;;;;;0.80;99.90;;;;;;4892911;29;20029;-79
2022/02/06 04:35:27;;;;;;;10.02;3.35;;;0.90;99.90;;;;;;4900810;29;19926;-81
2022/02/06 04:45:41;;;;;;;8.30;3.22;;;0.70;99.90;;;;;;4911305;29;20028;-79
2022/02/06 05:23:13;;;;;;;7.00;2.78;;;1.00;99.90;;;;;;4908854;29;20043;-78
2022/02/06 05:26:38;;;;;;;9.30;3.40;;;1.00;99.90;;;;;;4905036;29;20371;-78
2022/02/06 05:28:50;;;;;;;9.48;3.35;;;1.00;99.90;;;;;;4890114;29;20037;-78
2022/02/06 05:31:33;;;;;;;6.88;2.95;;;1.10;99.90;;;;;;4885274;29;20056;-79
2022/02/06 05:33:59;;;;;;;9.10;4.07;;;1.00;99.90;;;;;;4894259;29;20034;-80
2022/02/06 05:36:25;;;;;;;;;;;1.00;99.90;;;;;;4896637;29;20032;-80
2022/02/06 05:38:50;;;;;;;16.77;6.60;;;1.10;99.90;;;;;;4911240;29;19908;-80
2022/02/06 05:41:17;;;;;;;11.88;4.65;;;1.20;99.90;;;;;;4896205;29;20569;-80
2022/02/06 05:43:43;;;;;;;;;;;1.30;99.90;;;;;;4902837;29;20009;-81
2022/02/06 05:46:08;;;;;;;10.55;2.45;;;1.30;99.90;;;;;;4910977;29;20278;-78
2022/02/06 05:48:34;;;;;;;9.93;2.25;;;1.30;99.90;;;;;;4888138;29;20108;-79
2022/02/06 05:51:00;;;;;;;;;;;1.40;99.90;;;;;;4891616;29;20028;-80
2022/02/06 05:53:26;;;;;;;9.60;2.05;;;1.50;99.90;;;;;;4897671;29;19932;-81
2022/02/06 05:55:52;;;;;;;7.18;2.08;;;1.50;99.90;;;;;;4906425;29;20041;-80
2022/02/06 05:58:17;;;;;;;;;;;1.60;99.90;;;;;;4878276;29;20025;-80
2022/02/06 06:00:43;;;;;;;6.63;1.88;;;1.60;99.90;;;;;;4894762;29;19915;-80
2022/02/06 06:03:08;;;;;;;;;;;1.70;99.90;;;;;;4889968;29;20052;-80
2022/02/06 06:05:35;;;;;;;6.47;1.38;;;1.70;99.90;;;;;;4889539;29;20001;-79
2022/02/06 06:08:01;;;;;;;7.13;3.42;;;1.70;99.90;;;;;;4890738;29;20036;-79
2022/02/06 06:10:27;;;;;;;;;;;1.70;99.90;;;;;;4896592;29;20033;-81
2022/02/06 06:12:52;;;;;;;5.72;1.85;;;1.70;99.90;;;;;;4896328;29;19908;-79
2022/02/06 06:15:18;;;;;;;;;;;1.70;99.90;;;;;;4879059;29;20029;-81
2022/02/06 06:17:45;;;;;;;3.83;1.17;;;1.80;99.90;;;;;;4894811;29;19899;-78
2022/02/06 06:20:15;;;;;;;9.80;2.97;;;1.70;99.90;;;;;;4892762;29;20056;-81
2022/02/06 06:22:41;;;;;;;6.43;2.05;;;1.70;99.90;;;;;;4898582;29;20013;-80
2022/02/06 06:25:10;;;;;;;10.60;2.67;;;1.70;99.90;;;;;;4885297;29;20017;-81
2022/02/06 06:27:36;;;;;;;7.53;1.90;;;1.70;99.90;;;;;;4886182;29;20037;-80
2022/02/06 06:30:02;;;;;;;;;;;1.70;99.90;;;;;;4901039;29;20049;-80
2022/02/06 06:32:28;;;;;;;5.30;1.77;;;1.80;99.90;;;;;;4886152;29;19911;-81
2022/02/06 06:34:55;;;;;;;;;;;1.90;99.90;;;;;;4902094;29;20036;-80
2022/02/06 06:37:21;;;;;;;5.53;1.30;;;1.90;99.90;;;;;;4899736;29;19940;-80
2022/02/06 06:39:48;;;;;;;5.43;1.65;;;1.90;99.90;;;;;;4885959;29;20009;-81
2022/02/06 06:42:15;;;;;;;6.18;2.17;;;2.00;99.90;;;;;;4901658;29;20030;-80
2022/02/06 06:44:41;;;;;;;5.90;1.83;;;2.10;99.90;;;;;;4885989;29;20013;-81
2022/02/06 06:47:08;;;;;;;7.05;1.70;;;2.20;99.90;;;;;;4886424;29;20014;-81
2022/02/06 06:49:34;;;;;;;6.68;2.00;;;2.30;99.90;;;;;;4901255;29;20048;-80
2022/02/06 06:52:01;;;;;;;13.93;3.00;;;2.50;99.90;;;;;;4884919;29;20013;-81
2022/02/06 06:54:35;;;;;;;12.27;3.80;;;2.70;99.90;;;;;;4901315;29;20037;-80
2022/02/06 06:57:07;;;;;;;7.57;2.38;;;2.90;99.90;;;;;;4889346;29;20029;-80
2022/02/06 07:02:28;;;;;;;7.47;1.98;;;3.20;99.00;;;;;;4894615;29;20044;-79
2022/02/06 07:04:59;;;;;;;5.30;2.10;;;3.30;98.60;;;;;;4890604;29;20668;-79
2022/02/06 07:07:26;;;;;;;7.95;2.28;;;3.30;98.50;;;;;;4890471;29;20036;-79
2022/02/06 07:09:52;;;;;;;6.53;2.30;;;3.20;97.90;;;;;;4896009;29;20029;-80
2022/02/06 07:12:18;;;;;;;4.20;1.83;;;3.40;97.70;;;;;;4894633;29;20092;-79
2022/02/06 07:14:44;;;;;;;;;;;3.70;96.20;;;;;;4896635;29;20505;-80
2022/02/06 07:17:10;;;;;;;5.45;1.90;;;4.10;94.40;;;;;;4897872;29;19967;-80
2022/02/06 07:19:35;;;;;;;5.55;2.50;;;4.20;93.10;;;;;;4882235;29;20037;-80
2022/02/06 07:22:01;;;;;;;9.25;2.42;;;4.40;91.80;;;;;;4899082;29;20037;-80
2022/02/06 07:24:28;;;;;;;9.32;2.22;;;4.40;91.10;;;;;;4884453;29;20048;-80
2022/02/06 07:26:59;;;;;;;11.63;2.60;;;4.50;90.70;;;;;;4897414;29;20021;-80
2022/02/06 07:29:25;;;;;;;9.45;2.97;;;4.50;90.00;;;;;;4898492;29;20032;-80
2022/02/06 07:31:53;;;;;;;8.07;2.65;;;4.40;89.80;;;;;;4901456;29;20029;-81
2022/02/06 07:34:18;;;;;;;8.43;2.40;;;4.30;90.10;;;;;;4897575;29;20080;-80
2022/02/06 07:36:44;;;;;;;17.88;4.57;;;4.20;89.80;;;;;;4897944;29;20048;-80
2022/02/06 07:39:10;;;;;;;5.57;2.72;;;4.20;91.10;;;;;;4878844;29;20044;-80
2022/02/06 07:41:35;;;;;;;8.27;3.17;;;4.10;91.10;;;;;;4879546;29;20037;-81
2022/02/06 07:44:01;;;;;;;;;;;3.90;91.50;;;;;;4893364;29;20033;-80
2022/02/06 07:46:32;;;;;;;5.85;2.60;;;3.80;92.10;;;;;;4893565;29;19912;-80
2022/02/06 07:49:03;;;;;;;8.38;3.42;;;3.70;92.80;;;;;;4895048;29;20617;-80
2022/02/06 07:51:29;;;;;;;8.85;3.13;;;3.60;93.50;;;;;;4901107;29;20032;-80
2022/02/06 07:53:54;;;;;;;7.03;2.72;;;3.50;94.50;;;;;;4903638;29;20010;-79
2022/02/06 07:56:20;;;;;;;;;;;3.40;95.40;;;;;;4893247;29;20037;-80
2022/02/06 07:58:45;;;;;;;9.85;3.58;;;3.40;95.40;;;;;;4871062;29;20411;-80
2022/02/06 08:01:11;;;;;;;;;;;3.40;95.30;;;;;;4894673;29;20033;-81
2022/02/06 08:03:37;;;;;;;12.98;2.80;;;3.40;95.20;;;;;;4896360;29;19908;-80
2022/02/06 08:06:02;;;;;;;;;;;3.40;95.60;;;;;;4897937;29;20093;-80
2022/02/06 08:08:28;;;;;;;9.05;3.00;;;3.40;95.30;;;;;;4889216;29;19911;-79
2022/02/06 08:11:01;;;;;;;;;;;3.50;95.20;;;;;;4883630;29;20115;-80
2022/02/06 08:13:39;;;;;;;7.15;2.65;;;3.50;94.70;;;;;;4884872;29;19919;-78
2022/02/06 08:16:05;;;;;;;7.63;2.80;;;3.60;94.60;;;;;;4884228;29;20493;-78
2022/02/06 08:18:32;;;;;;;8.07;2.83;;;3.60;94.70;;;;;;4884608;29;20037;-78
2022/02/06 08:20:57;;;;;;;9.02;3.50;;;3.70;94.20;;;;;;4883433;29;20037;-78
2022/02/06 08:23:23;;;;;;;5.30;2.10;;;3.70;93.90;;;;;;4881662;29;20025;-79
2022/02/06 08:25:48;;;;;;;;;;;3.70;92.60;;;;;;4884370;29;20518;-79
2022/02/06 08:28:15;;;;;;;6.50;2.45;;;3.70;93.10;;;;;;4882815;29;19912;-79
2022/02/06 08:30:42;;;;;;;6.00;2.53;;;3.70;92.90;;;;;;4881360;29;20040;-78
2022/02/06 08:33:08;;;;;;;8.25;2.92;;;3.80;92.60;;;;;;4882648;29;20398;-79
2022/02/06 08:35:34;;;;;;;7.70;2.65;;;3.70;93.00;;;;;;4866237;29;20556;-79
2022/02/06 08:37:59;;;;;;;7.72;2.60;;;3.80;93.20;;;;;;4881300;29;20052;-79
2022/02/06 08:40:25;;;;;;;6.00;2.72;;;3.80;93.00;;;;;;4866139;29;20033;-80
2022/02/06 08:42:51;;;;;;;10.30;2.97;;;3.80;93.10;;;;;;4883097;29;20039;-79
2022/02/06 08:45:17;;;;;;;;;;;3.80;92.50;;;;;;4882984;29;20115;-79
2022/02/06 08:47:43;;;;;;;11.73;3.70;;;3.90;92.10;;;;;;4867171;29;19911;-78
2022/02/06 08:50:10;;;;;;;10.90;4.18;;;4.00;93.10;;;;;;4891922;29;20093;-79
2022/02/06 08:52:36;;;;;;;7.70;3.40;;;4.60;92.10;;;;;;4897948;29;20018;-78
2022/02/06 08:55:05;;;;;;;6.40;3.33;;;5.20;89.50;;;;;;4890246;29;20021;-80
2022/02/06 08:57:43;;;;;;;11.15;2.95;;;5.80;81.80;;;;;;4877024;29;20037;-79
2022/02/06 09:00:10;;;;;;;10.70;3.90;;;6.30;74.50;;;;;;4874988;29;20064;-79
2022/02/06 09:02:35;;;;;;;12.07;3.70;;;6.50;69.90;;;;;;4880963;29;20029;-77
2022/02/06 09:05:03;;;;;;;12.10;4.00;;;6.50;69.10;;;;;;4878742;29;20044;-78
2022/02/06 09:07:29;;;;;;;7.03;3.63;;;6.70;68.70;;;;;;4862199;29;20040;-78
2022/02/06 09:09:59;;;;;;;8.63;2.67;;;6.90;67.40;;;;;;4875552;29;20120;-79
2022/02/06 09:12:26;;;;;;;12.88;3.80;;;7.00;66.70;;;;;;4887536;29;20028;-79
2022/02/06 09:14:52;;;;;;;10.50;4.07;;;7.10;66.30;;;;;;4886582;29;20037;-79
2022/02/06 09:17:22;;;;;;;7.45;3.58;;;7.20;64.30;;;;;;4878403;29;20504;-79
2022/02/06 09:19:48;;;;;;;11.82;6.35;;;7.40;65.50;;;;;;4872650;29;20498;-77
2022/02/06 09:22:14;;;;;;;;;;;7.70;64.40;;;;;;4857234;29;20123;-85
2022/02/06 09:24:41;;;;;;;5.33;2.70;;;8.00;62.00;;;;;;4856938;29;19912;-79
2022/02/06 09:27:07;;;;;;;9.75;4.90;;;8.30;60.90;;;;;;4856818;29;20065;-82
2022/02/06 09:29:34;;;;;;;9.88;5.25;;;8.70;60.40;;;;;;4873146;29;20035;-82
2022/02/06 09:37:07;;;;;;;13.65;7.05;;;10.00;54.30;;;;;;4874274;29;20033;-83
2022/02/06 09:39:38;;;;;;;12.23;6.00;;;10.00;52.60;;;;;;4859093;29;20455;-80
2022/02/06 09:42:05;;;;;;;10.52;4.68;;;10.10;52.20;;;;;;4859257;29;20417;-78
2022/02/06 09:44:31;;;;;;;8.55;4.68;;;10.10;51.40;;;;;;4876167;29;20039;-81
2022/02/06 09:46:58;;;;;;;10.48;3.45;;;10.20;51.40;;;;;;4874846;29;20041;-81
2022/02/06 09:49:28;;;;;;;9.27;4.03;;;9.90;50.70;;;;;;4859357;29;20093;-81
2022/02/06 09:51:54;;;;;;;9.13;3.53;;;9.80;50.90;;;;;;4859792;29;20029;-84
2022/02/06 09:54:20;;;;;;;;;;;9.80;50.50;;;;;;4877347;29;20442;-86
2022/02/06 09:56:50;;;;;;;7.13;3.97;;;9.60;51.10;;;;;;4876817;29;19958;-85
2022/02/06 09:59:20;;;;;;;9.98;4.10;;;9.40;51.50;;;;;;4876561;29;20036;-80
2022/02/06 10:01:54;;;;;;;11.20;5.60;;;9.20;52.20;;;;;;4871008;29;20650;-84
2022/02/06 10:04:23;;;;;;;14.55;4.78;;;9.00;53.00;;;;;;4861032;29;20041;-83
2022/02/06 10:07:11;;;;;;;6.30;2.80;;;9.00;54.00;;;;;;4890393;29;20037;-79
2022/02/06 10:10:01;;;;;;;9.20;5.00;;;9.10;52.90;;;;;;4876151;29;20029;-79
2022/02/06 10:12:34;;;;;;;6.15;2.42;;;9.00;51.50;;;;;;4876541;29;20030;-79
2022/02/06 10:15:00;;;;;;;4.38;1.60;;;8.80;51.00;;;;;;4877324;29;20566;-79
2022/02/06 10:17:26;;;;;;;;;;;8.80;51.40;;;;;;4895068;29;20044;-80
2022/02/06 10:19:58;;;;;;;4.10;1.55;;;8.60;51.50;;;;;;4901299;29;19912;-78
2022/02/06 10:22:39;;;;;;;3.70;1.70;;;8.40;53.10;;;;;;4894054;29;20053;-80
2022/02/06 10:25:07;;;;;;;5.32;1.88;;;8.40;52.80;;;;;;4877867;29;20029;-80
2022/02/06 10:28:08;;;;;;;6.68;1.60;;;8.20;52.90;;;;;;4894306;29;20033;-80
2022/02/06 10:30:44;;;;;;;2.90;1.42;;;8.20;53.30;;;;;;4882256;29;20052;-79
2022/02/06 10:33:19;;;;;;;6.13;1.50;;;8.00;53.80;;;;;;4872525;29;20044;-79
2022/02/06 10:35:50;;;;;;;4.53;1.40;;;7.80;54.70;;;;;;4867381;29;20059;-80
2022/02/06 10:38:20;;;;;;;3.75;1.48;;;7.80;54.50;;;;;;4887045;29;20033;-79
2022/02/06 10:41:13;;;;;;;9.38;2.28;;;7.70;54.30;;;;;;4871670;29;20032;-79
2022/02/06 10:44:04;;;;;;;4.88;1.40;;;7.70;54.70;;;;;;4889264;29;20032;-79
2022/02/06 10:46:43;;;;;;;4.03;1.60;;;7.60;55.00;;;;;;4870069;29;20025;-79
2022/02/06 10:49:21;;;;;;;5.22;2.10;;;7.50;55.30;;;;;;4868372;29;20383;-80
2022/02/06 10:51:57;;;;;;;6.07;1.30;;;7.40;55.70;;;;;;4872526;29;20067;-79
2022/02/06 10:54:35;;;;;;;4.60;2.00;;;7.40;56.10;;;;;;4889177;29;20036;-79
2022/02/06 10:57:18;;;;;;;7.50;1.67;;;7.40;56.10;;;;;;4891874;29;20065;-79
2022/02/06 10:59:45;;;;;;;4.72;1.85;;;7.60;56.60;;;;;;4876971;29;20036;-79
2022/02/06 11:02:31;;;;;;;5.55;1.60;;;7.70;56.30;;;;;;4890679;29;20040;-78
2022/02/06 11:04:58;;;;;;;4.60;2.03;;;7.90;56.00;;;;;;4891011;29;20049;-79
2022/02/06 11:07:24;;;;;;;5.13;1.83;;;8.10;56.50;;;;;;4889908;29;20851;-79
2022/02/06 11:09:49;;;;;;;;;;;8.40;55.40;;;;;;4875480;29;20032;-78
2022/02/06 11:12:22;;;;;;;4.10;1.52;;;8.70;53.60;;;;;;4890842;29;19908;-79
2022/02/06 11:14:52;;;;;;;7.97;1.60;;;8.80;53.00;;;;;;4874703;29;20033;-78
2022/02/06 11:17:23;;;;;;;4.63;1.52;;;8.80;52.80;;;;;;4875393;29;20514;-78
2022/02/06 11:20:11;;;;;;;7.82;1.65;;;8.70;52.60;;;;;;4892837;29;20059;-79
2022/02/06 11:22:49;;;;;;;6.18;1.67;;;8.70;52.90;;;;;;4882585;29;20060;-76
2022/02/06 11:25:15;;;;;;;6.15;1.83;;;8.60;52.90;;;;;;4862407;29;20100;-76
2022/02/06 11:27:42;;;;;;;6.05;1.60;;;8.50;53.30;;;;;;4878489;29;20033;-75
2022/02/06 11:30:08;;;;;;;4.88;2.15;;;8.50;53.40;;;;;;4878569;29;20045;-76
2022/02/06 11:32:36;;;;;;;;;;;8.50;53.90;;;;;;4879142;29;20040;-76
2022/02/06 11:35:10;;;;;;;4.93;1.90;;;8.40;54.00;;;;;;4878732;29;19930;-76
2022/02/06 11:46:07;;;;;;;7.03;2.30;;;8.40;55.40;;;;;;4882987;29;20406;-76
2022/02/06 11:48:34;;;;;;;5.85;2.55;;;8.50;55.30;;;;;;4885712;29;20490;-75
2022/02/06 11:51:00;;;;;;;6.22;1.88;;;8.50;55.40;;;;;;4877342;29;20072;-75
2022/02/06 11:53:42;;;;;;;5.80;2.10;;;8.80;54.80;;;;;;4861690;29;20053;-76
2022/02/06 11:56:36;;;;;;;6.65;2.30;;;8.90;54.00;;;;;;4878749;29;20093;-76
2022/02/06 11:59:12;;;;;;;6.72;2.78;;;8.80;54.50;;;;;;4878474;29;20045;-76
2022/02/06 12:01:41;;;;;;;5.93;2.33;;;8.90;54.20;;;;;;4878709;29;20116;-76
2022/02/06 12:04:28;;;;;;;5.63;2.70;;;8.80;54.00;;;;;;4862696;29;20171;-76
2022/02/06 12:06:57;;;;;;;5.07;2.15;;;8.70;54.50;;;;;;4863258;29;20168;-76
2022/02/06 12:09:29;;;;;;;6.90;2.45;;;8.70;54.60;;;;;;4877144;29;20463;-76
2022/02/06 12:12:04;;;;;;;5.15;2.95;;;8.70;55.00;;;;;;4876936;29;20037;-76
2022/02/06 12:14:34;;;;;;;4.63;2.38;;;8.70;55.60;;;;;;4861720;29;20040;-76
2022/02/06 12:17:10;;;;;;;3.80;1.95;;;8.70;55.90;;;;;;4878535;29;20036;-76
2022/02/06 12:19:36;;;;;;;4.78;2.22;;;9.10;54.60;;;;;;4879054;29;20060;-76
2022/02/06 12:22:22;;;;;;;;;;;9.10;54.70;;;;;;4879386;29;20033;-75
2022/02/06 12:24:48;;;;;;;7.47;2.25;;;9.00;54.80;;;;;;4861702;29;19911;-75
2022/02/06 12:27:25;;;;;;;8.73;2.38;;;9.00;55.20;;;;;;4878945;29;20036;-75
2022/02/06 12:29:58;;;;;;;5.15;2.00;;;8.80;55.60;;;;;;4879120;29;20131;-76
2022/02/06 12:32:33;;;;;;;6.20;2.03;;;8.80;56.20;;;;;;4879748;29;20029;-76
2022/02/06 12:37:44;;;;;;;7.95;2.90;;;8.70;56.50;;;;;;4879106;29;20076;-76
2022/02/06 12:40:14;;;;;;;6.07;2.58;;;8.80;56.00;;;;;;4879330;29;20037;-75
2022/02/06 12:42:45;;;;;;;6.97;2.22;;;8.90;56.30;;;;;;4879629;29;20065;-76
2022/02/06 12:45:19;;;;;;;7.00;2.45;;;8.90;56.70;;;;;;4879180;29;20028;-76
2022/02/06 12:47:46;;;;;;;6.35;3.00;;;9.00;57.00;;;;;;4877766;29;20021;-75
2022/02/06 12:50:17;;;;;;;10.43;2.30;;;9.10;56.20;;;;;;4877243;29;20052;-75
2022/02/06 12:52:42;;;;;;;6.82;2.95;;;9.10;56.00;;;;;;4877412;29;20032;-76
2022/02/06 12:55:10;;;;;;;6.10;2.70;;;9.10;56.10;;;;;;4878277;29;20569;-76
2022/02/06 12:57:46;;;;;;;6.50;2.40;;;9.00;56.30;;;;;;4862052;29;20064;-77
2022/02/06 13:00:40;;;;;;;5.90;2.80;;;9.10;56.30;;;;;;4879854;29;20033;-76
2022/02/06 13:03:36;;;;;;;6.85;3.25;;;9.00;56.50;;;;;;4877927;29;20033;-76
2022/02/06 13:06:09;;;;;;;6.45;2.83;;;9.10;56.40;;;;;;4880000;29;20115;-76
2022/02/06 13:08:39;;;;;;;6.35;2.60;;;9.10;56.20;;;;;;4879423;29;20025;-76
2022/02/06 13:11:10;;;;;;;5.47;2.45;;;9.10;56.60;;;;;;4878198;29;20029;-76
2022/02/06 13:13:45;;;;;;;9.85;2.67;;;9.10;57.30;;;;;;4878429;29;20021;-76
2022/02/06 13:21:54;;;;;;;4.45;2.17;;;9.10;56.50;;;;;;4876846;29;20075;-76
2022/02/06 13:29:58;;;;;;;29.45;11.05;;;9.20;57.00;;;;;;4876708;29;20021;-76
2022/02/06 13:37:58;;;;;;;6.50;3.65;;;9.50;56.30;;;;;;4877115;29;20043;-76
2022/02/06 13:40:28;;;;;;;10.18;3.28;;;9.50;56.20;;;;;;4860977;29;20032;-76
2022/02/06 13:42:58;;;;;;;5.53;3.10;;;9.40;55.90;;;;;;4877135;29;20446;-76
2022/02/06 13:45:25;;;;;;;7.57;2.80;;;9.30;56.20;;;;;;4860390;29;20532;-76
2022/02/06 13:47:52;;;;;;;9.10;3.45;;;9.20;56.60;;;;;;4860656;29;20379;-77
2022/02/06 13:50:18;;;;;;;6.78;3.05;;;9.10;57.30;;;;;;4860447;29;20092;-76
2022/02/06 13:52:45;;;;;;;7.88;2.67;;;9.00;57.70;;;;;;4875926;29;20427;-76
2022/02/06 13:55:13;;;;;;;6.07;2.88;;;8.90;58.30;;;;;;4876007;29;20029;-76
2022/02/06 13:57:40;;;;;;;6.20;2.60;;;8.80;58.80;;;;;;4877059;29;20044;-76
2022/02/06 14:00:09;;;;;;;5.60;2.45;;;8.80;59.40;;;;;;4876980;29;20032;-76
2022/02/06 14:02:35;;;;;;;5.18;2.65;;;8.70;59.10;;;;;;4876950;29;20033;-76
2022/02/06 14:05:10;;;;;;;6.78;3.08;;;8.70;58.60;;;;;;4874379;29;20807;-75
2022/02/06 14:07:35;;;;;;;8.68;3.00;;;8.60;59.10;;;;;;4877403;29;20037;-76
2022/02/06 14:10:12;;;;;;;8.30;2.45;;;8.50;59.40;;;;;;4879345;29;20025;-76
2022/02/06 14:12:49;;;;;;;7.30;2.75;;;8.40;59.60;;;;;;4877314;29;20041;-76
2022/02/06 14:15:23;;;;;;;9.82;2.50;;;8.40;60.20;;;;;;4877558;29;20075;-76
2022/02/06 14:17:50;;;;;;;6.90;2.80;;;8.40;60.30;;;;;;4877421;29;20040;-76
2022/02/06 14:20:24;;;;;;;5.05;2.40;;;8.40;60.60;;;;;;4860356;29;20029;-76
2022/02/06 14:22:54;;;;;;;6.32;3.00;;;8.30;60.60;;;;;;4878741;29;20092;-76
2022/02/06 14:25:32;;;;;;;8.07;2.97;;;8.30;61.30;;;;;;4882600;29;20029;-78
2022/02/06 14:28:00;;;;;;;8.93;4.22;;;8.30;62.20;;;;;;4870402;29;20037;-78
2022/02/06 14:30:39;;;;;;;4.63;2.42;;;8.40;62.60;;;;;;4885802;29;20037;-78
2022/02/06 14:33:11;;;;;;;8.93;4.72;;;8.50;62.60;;;;;;4886501;29;20033;-78
2022/02/06 14:36:07;;;;;;;7.70;3.25;;;8.50;62.00;;;;;;4862717;29;20049;-77
2022/02/06 14:38:41;;;;;;;7.13;2.92;;;8.50;62.10;;;;;;4878660;29;20040;-78
2022/02/06 14:43:45;;;;;;;7.82;2.78;;;8.40;62.40;;;;;;4886236;29;20413;-78
2022/02/06 14:46:11;;;;;;;4.43;2.22;;;8.30;63.10;;;;;;4878222;29;20147;-77
2022/02/06 14:48:37;;;;;;;4.75;2.45;;;8.20;63.90;;;;;;4866579;29;20443;-78
2022/02/06 14:51:04;;;;;;;4.10;2.05;;;8.20;64.40;;;;;;4861505;29;20029;-78
2022/02/06 14:53:29;;;;;;;5.72;2.38;;;8.10;64.70;;;;;;4877480;29;20104;-77
2022/02/06 14:55:56;;;;;;;8.15;2.55;;;8.00;65.40;;;;;;4881809;29;20514;-78
2022/02/06 14:58:25;;;;;;;6.22;3.03;;;7.90;66.20;;;;;;4881072;29;20044;-77
2022/02/06 15:00:52;;;;;;;6.55;3.30;;;7.80;67.10;;;;;;4878755;29;20032;-78
2022/02/06 15:03:17;;;;;;;;;;;7.90;67.70;;;;;;4880781;29;20506;-78
2022/02/06 15:05:44;;;;;;;9.38;2.70;;;7.80;68.30;;;;;;4881851;29;19914;-78
2022/02/06 15:08:10;;;;;;;6.22;2.53;;;7.70;68.60;;;;;;4886880;29;20033;-79
2022/02/06 15:10:36;;;;;;;6.45;2.95;;;7.70;68.70;;;;;;4883930;29;20057;-80
2022/02/06 15:13:09;;;;;;;7.55;2.78;;;7.60;69.50;;;;;;4872169;29;20048;-79
2022/02/06 15:15:40;;;;;;;7.55;2.83;;;7.50;70.50;;;;;;4875895;29;20021;-80
2022/02/06 15:20:48;;;;;;;8.65;3.25;;;7.30;72.30;;;;;;4884304;29;20033;-78
2022/02/06 15:23:14;;;;;;;6.38;2.88;;;7.30;73.10;;;;;;4890766;29;20032;-80
2022/02/06 15:25:40;;;;;;;5.15;2.50;;;7.20;73.90;;;;;;4890263;29;20115;-78
2022/02/06 15:28:05;;;;;;;7.57;3.92;;;7.10;74.70;;;;;;4866254;29;20067;-77
2022/02/06 15:30:31;;;;;;;9.55;4.38;;;7.00;75.70;;;;;;4866582;29;20037;-78
2022/02/06 15:32:57;;;;;;;;;;;6.90;76.90;;;;;;4867244;29;20037;-78
2022/02/06 15:35:22;;;;;;;13.43;4.30;;;6.80;78.10;;;;;;4872373;29;20022;-80
2022/02/06 15:37:48;;;;;;;;;;;6.70;79.00;;;;;;4872865;29;20406;-79
2022/02/06 15:40:21;;;;;;;13.80;6.05;;;6.60;81.00;;;;;;4894481;29;20047;-79
2022/02/06 15:42:46;;;;;;;11.85;7.10;;;6.50;81.50;;;;;;4882371;29;20049;-80
2022/02/06 15:45:12;;;;;;;19.20;9.82;;;6.40;82.90;;;;;;4878227;29;20088;-80
2022/02/06 15:47:38;;;;;;;21.75;11.55;;;6.30;84.00;;;;;;4887169;29;20608;-80
2022/02/06 15:50:06;;;;;;;;;;;6.20;85.20;;;;;;4874842;29;20068;-82
2022/02/06 15:52:32;;;;;;;25.15;10.80;;;6.10;87.40;;;;;;4891624;29;19911;-80
2022/02/06 15:54:58;;;;;;;22.15;11.98;;;6.00;89.50;;;;;;4866697;29;20032;-78
2022/02/06 15:57:24;;;;;;;35.05;18.67;;;5.80;90.70;;;;;;4885317;29;20068;-80
2022/02/06 15:59:51;;;;;;;131.88;55.15;;;5.80;91.10;;;;;;4870560;29;20032;-79
2022/02/06 16:02:17;;;;;;;104.00;45.85;;;5.80;92.10;;;;;;4887293;29;20025;-79
2022/02/06 16:04:43;;;;;;;;;;;5.70;92.80;;;;;;4873332;29;20029;-79